Lezavel — FAA6945 — position and weather

sailwx.info

Track history (hours):
 
Tides and Currents Weather Stations Pressure Air Temp Water Temp Dewpoint Dewpoint Depression Visibility Wind Speed Wind Dir Waves Ship Positions

Lezavel

Last reported at 2017-Aug-23 13:22 UTC. Time now 2017-Nov-21 17:41 UTC.
Position N 47°33' W 002°54'.
Warning: this ship's position is months out of date.

Type: Pleasure craft. MMSI: 227147830.

Date/timePositionNaut miles runAvg speedWind from/ knotsBaromVisibWave heightAir tempDewpointWater temp
2017-Aug-23 13:22N 47°33' W 002°54'0 0.1
2017-Aug-23 12:59N 47°33' W 002°54'0 0.0
2017-Aug-22 14:29N 47°32' W 002°54'0 0.0
2017-Aug-22 13:23N 47°32' W 002°54'0 0.0
2017-Aug-22 12:59N 47°32' W 002°54'0 0.0
2017-Aug-22 06:44N 47°32' W 002°54'0 0.0
2017-Aug-22 04:50N 47°32' W 002°54'0 0.0
2017-Aug-22 04:29N 47°32' W 002°54'0 0.0
2017-Aug-22 03:53N 47°32' W 002°54'0 0.0
2017-Aug-22 02:38N 47°32' W 002°54'0 0.0
2017-Aug-22 01:44N 47°32' W 002°54'0 0.0
2017-Aug-22 01:20N 47°32' W 002°54'0 0.0
2017-Aug-22 00:56N 47°32' W 002°54'0 0.0
2017-Aug-22 00:02N 47°32' W 002°54'0 0.0
2017-Aug-21 23:53N 47°32' W 002°54'0 0.0
2017-Aug-21 23:23N 47°32' W 002°54'0 0.0
2017-Aug-21 22:59N 47°32' W 002°54'0 0.0
2017-Aug-21 21:59N 47°32' W 002°54'0 0.0
2017-Aug-21 19:32N 47°32' W 002°54'0 0.0
2017-Aug-21 19:29N 47°32' W 002°54'0 0.0
2017-Aug-21 18:53N 47°32' W 002°54'0 0.0
2017-Aug-20 15:12N 47°32' W 002°54'5 8.0
2017-Aug-20 14:37N 47°29' W 002°59'1 8.6
2017-Aug-20 14:29N 47°28' W 003°00'10 1.6
2017-Aug-20 08:03N 47°23' W 003°13'8 0.4
2017-Aug-19 12:02N 47°27' W 003°03'1 5.8
2017-Aug-19 11:49N 47°27' W 003°01'2 6.5
2017-Aug-19 11:30N 47°29' W 002°59'4 7.1
2017-Aug-19 10:58N 47°32' W 002°56'2 2.4
2017-Aug-19 10:16N 47°33' W 002°54'1 5.3
2017-Aug-19 10:00N 47°32' W 002°55'3 6.8
2017-Aug-19 09:30N 47°33' W 003°00'2 0.1
2017-Aug-17 15:57N 47°35' W 003°01'3 6.4
2017-Aug-17 15:30N 47°33' W 002°60'3 5.3
2017-Aug-17 14:56N 47°33' W 002°55'3 7.7
2017-Aug-17 14:29N 47°36' W 002°51'2 4.8
2017-Aug-17 14:00N 47°37' W 002°48'1 1.7
2017-Aug-17 13:30N 47°37' W 002°47'0 0.0
2017-Aug-17 13:00N 47°37' W 002°47'0 0.0
2017-Aug-17 12:30N 47°37' W 002°47'0 0.9
2017-Aug-17 12:00N 47°37' W 002°47'2 3.8
2017-Aug-17 11:30N 47°35' W 002°46'3 6.1
2017-Aug-17 11:00N 47°34' W 002°51'3 5.7
2017-Aug-17 10:30N 47°34' W 002°55'1 2.3
2017-Aug-17 09:54N 47°33' W 002°54'0 0.0
2017-Aug-17 09:30N 47°33' W 002°54'0 0.0
2017-Aug-17 08:54N 47°33' W 002°54'0 0.0
2017-Aug-17 08:30N 47°33' W 002°54'0 0.0
2017-Aug-16 23:54N 47°33' W 002°54'0 0.0
2017-Aug-16 23:30N 47°33' W 002°54'0 0.0
2017-Aug-16 22:54N 47°33' W 002°54'0 0.0
2017-Aug-16 22:27N 47°33' W 002°54'0 0.0
2017-Aug-16 22:00N 47°33' W 002°54'0 0.0
2017-Aug-16 21:30N 47°33' W 002°54'0 0.0
2017-Aug-16 21:00N 47°33' W 002°54'0 0.0
2017-Aug-16 20:27N 47°33' W 002°54'0 0.0
2017-Aug-16 19:48N 47°33' W 002°54'0 0.0
2017-Aug-16 19:30N 47°33' W 002°54'0 0.0
2017-Aug-16 18:57N 47°33' W 002°54'0 0.0
2017-Aug-16 18:30N 47°33' W 002°54'0 0.0
2017-Aug-16 17:42N 47°33' W 002°54'0 0.0
2017-Aug-16 17:27N 47°33' W 002°54'0 0.1
2017-Aug-16 16:42N 47°33' W 002°54'1 3.4
2017-Aug-16 16:24N 47°32' W 002°55'  
Track history (hours):
 
Tides and Currents Weather Stations Pressure Air Temp Water Temp Dewpoint Dewpoint Depression Visibility Wind Speed Wind Dir Waves Ship Positions

Lezavel

Last reported at 2017-Aug-23 13:22 UTC. Time now 2017-Nov-21 17:41 UTC.
Position N 47°33' W 002°54'.
Warning: this ship's position is months out of date.

Type: Pleasure craft. MMSI: 227147830.

Date/timePositionNaut miles runAvg speedWind from/ knotsBaromVisibWave heightAir tempDewpointWater temp
2017-Aug-23 13:22N 47°33' W 002°54'0 0.1
2017-Aug-23 12:59N 47°33' W 002°54'0 0.0
2017-Aug-22 14:29N 47°32' W 002°54'0 0.0
2017-Aug-22 13:23N 47°32' W 002°54'0 0.0
2017-Aug-22 12:59N 47°32' W 002°54'0 0.0
2017-Aug-22 06:44N 47°32' W 002°54'0 0.0
2017-Aug-22 04:50N 47°32' W 002°54'0 0.0
2017-Aug-22 04:29N 47°32' W 002°54'0 0.0
2017-Aug-22 03:53N 47°32' W 002°54'0 0.0
2017-Aug-22 02:38N 47°32' W 002°54'0 0.0
2017-Aug-22 01:44N 47°32' W 002°54'0 0.0
2017-Aug-22 01:20N 47°32' W 002°54'0 0.0
2017-Aug-22 00:56N 47°32' W 002°54'0 0.0
2017-Aug-22 00:02N 47°32' W 002°54'0 0.0
2017-Aug-21 23:53N 47°32' W 002°54'0 0.0
2017-Aug-21 23:23N 47°32' W 002°54'0 0.0
2017-Aug-21 22:59N 47°32' W 002°54'0 0.0
2017-Aug-21 21:59N 47°32' W 002°54'0 0.0
2017-Aug-21 19:32N 47°32' W 002°54'0 0.0
2017-Aug-21 19:29N 47°32' W 002°54'0 0.0
2017-Aug-21 18:53N 47°32' W 002°54'0 0.0
2017-Aug-20 15:12N 47°32' W 002°54'5 8.0
2017-Aug-20 14:37N 47°29' W 002°59'1 8.6
2017-Aug-20 14:29N 47°28' W 003°00'10 1.6
2017-Aug-20 08:03N 47°23' W 003°13'8 0.4
2017-Aug-19 12:02N 47°27' W 003°03'1 5.8
2017-Aug-19 11:49N 47°27' W 003°01'2 6.5
2017-Aug-19 11:30N 47°29' W 002°59'4 7.1
2017-Aug-19 10:58N 47°32' W 002°56'2 2.4
2017-Aug-19 10:16N 47°33' W 002°54'1 5.3
2017-Aug-19 10:00N 47°32' W 002°55'3 6.8
2017-Aug-19 09:30N 47°33' W 003°00'2 0.1
2017-Aug-17 15:57N 47°35' W 003°01'3 6.4
2017-Aug-17 15:30N 47°33' W 002°60'3 5.3
2017-Aug-17 14:56N 47°33' W 002°55'3 7.7
2017-Aug-17 14:29N 47°36' W 002°51'2 4.8
2017-Aug-17 14:00N 47°37' W 002°48'1 1.7
2017-Aug-17 13:30N 47°37' W 002°47'0 0.0
2017-Aug-17 13:00N 47°37' W 002°47'0 0.0
2017-Aug-17 12:30N 47°37' W 002°47'0 0.9
2017-Aug-17 12:00N 47°37' W 002°47'2 3.8
2017-Aug-17 11:30N 47°35' W 002°46'3 6.1
2017-Aug-17 11:00N 47°34' W 002°51'3 5.7
2017-Aug-17 10:30N 47°34' W 002°55'1 2.3
2017-Aug-17 09:54N 47°33' W 002°54'0 0.0
2017-Aug-17 09:30N 47°33' W 002°54'0 0.0
2017-Aug-17 08:54N 47°33' W 002°54'0 0.0
2017-Aug-17 08:30N 47°33' W 002°54'0 0.0
2017-Aug-16 23:54N 47°33' W 002°54'0 0.0
2017-Aug-16 23:30N 47°33' W 002°54'0 0.0
2017-Aug-16 22:54N 47°33' W 002°54'0 0.0
2017-Aug-16 22:27N 47°33' W 002°54'0 0.0
2017-Aug-16 22:00N 47°33' W 002°54'0 0.0
2017-Aug-16 21:30N 47°33' W 002°54'0 0.0
2017-Aug-16 21:00N 47°33' W 002°54'0 0.0
2017-Aug-16 20:27N 47°33' W 002°54'0 0.0
2017-Aug-16 19:48N 47°33' W 002°54'0 0.0
2017-Aug-16 19:30N 47°33' W 002°54'0 0.0
2017-Aug-16 18:57N 47°33' W 002°54'0 0.0
2017-Aug-16 18:30N 47°33' W 002°54'0 0.0
2017-Aug-16 17:42N 47°33' W 002°54'0 0.0
2017-Aug-16 17:27N 47°33' W 002°54'0 0.1
2017-Aug-16 16:42N 47°33' W 002°54'1 3.4
2017-Aug-16 16:24N 47°32' W 002°55'  

Dump ship's entire track history